Time,TemperatureF,DewpointF,PressureIn,WindDirection,WindDirectionDegrees,WindSpeedMPH,WindSpeedGustMPH,Humidity,HourlyPrecipIn,Conditions,Clouds,dailyrainin,SoftwareType,DateUTC
2013-01-27 00:00:00,32.2,30.9,29.57,SE,136,0.0,0.0,95,0.00,,---,0.07,VWS V14.01,2013-01-27 07:00:00,
2013-01-27 00:10:00,32.3,31.0,29.57,SE,136,0.0,0.0,95,0.00,,---,0.00,VWS V14.01,2013-01-27 07:10:00,
2013-01-27 00:20:00,32.4,31.1,29.57,SE,136,0.0,0.0,95,0.00,,---,0.00,VWS V14.01,2013-01-27 07:20:00,
2013-01-27 00:30:00,32.3,31.0,29.56,SE,136,0.0,0.0,95,0.00,,---,0.00,VWS V14.01,2013-01-27 07:30:00,
2013-01-27 00:40:00,32.3,31.0,29.56,SE,136,0.0,0.0,95,0.00,,---,0.00,VWS V14.01,2013-01-27 07:40:00,
2013-01-27 00:50:00,32.4,31.1,29.56,SE,136,0.0,0.0,95,0.00,,---,0.00,VWS V14.01,2013-01-27 07:50:00,
2013-01-27 01:00:00,32.4,31.1,29.56,SE,136,0.0,0.0,95,0.00,,---,0.00,VWS V14.01,2013-01-27 08:00:00,
2013-01-27 01:10:00,32.3,31.0,29.56,SE,136,0.0,0.0,95,0.00,,---,0.00,VWS V14.01,2013-01-27 08:10:00,
2013-01-27 01:20:00,32.2,30.7,29.56,SE,136,0.0,0.0,94,0.00,,---,0.00,VWS V14.01,2013-01-27 08:20:00,
2013-01-27 01:30:00,32.1,30.6,29.56,SE,136,0.0,0.0,94,0.00,,---,0.00,VWS V14.01,2013-01-27 08:30:00,
2013-01-27 01:40:00,32.1,30.6,29.55,SE,136,0.0,0.0,94,0.00,,---,0.00,VWS V14.01,2013-01-27 08:40:00,
2013-01-27 01:50:00,32.0,30.7,29.56,SE,136,0.0,0.0,95,0.00,,---,0.00,VWS V14.01,2013-01-27 08:50:00,
2013-01-27 02:00:00,32.0,30.7,29.56,SE,136,0.0,0.0,95,0.00,,---,0.00,VWS V14.01,2013-01-27 09:00:00,
2013-01-27 02:10:00,31.9,30.6,29.61,SE,136,0.0,0.0,95,0.00,,---,0.00,VWS V14.01,2013-01-27 09:10:00,
2013-01-27 02:20:00,31.8,30.5,29.61,SE,136,0.0,0.0,95,0.00,,---,0.00,VWS V14.01,2013-01-27 09:20:00,
2013-01-27 02:30:00,31.9,30.6,29.61,SE,136,0.0,0.0,95,0.00,,---,0.00,VWS V14.01,2013-01-27 09:30:00,
2013-01-27 02:40:00,31.9,30.4,29.61,SE,136,0.0,0.0,94,0.00,,---,0.00,VWS V14.01,2013-01-27 09:40:00,
2013-01-27 02:50:00,31.9,31.9,29.62,SE,136,0.0,0.0,100,0.00,,---,0.00,VWS V14.01,2013-01-27 09:50:00,
2013-01-27 03:00:00,31.4,29.6,29.61,SE,136,0.0,0.0,93,0.00,,---,0.00,VWS V14.01,2013-01-27 10:00:00,
2013-01-27 03:10:00,30.6,28.8,29.65,SE,136,0.0,0.0,93,0.00,,---,0.00,VWS V14.01,2013-01-27 10:10:00,
2013-01-27 03:20:00,30.8,29.0,29.64,SE,136,0.0,0.0,93,0.00,,---,0.00,VWS V14.01,2013-01-27 10:20:00,
2013-01-27 03:30:00,31.3,29.5,29.64,SE,136,0.0,0.0,93,0.00,,---,0.00,VWS V14.01,2013-01-27 10:30:00,
2013-01-27 03:40:00,30.9,29.1,29.64,SE,136,0.0,0.0,93,0.00,,---,0.00,VWS V14.01,2013-01-27 10:40:00,
2013-01-27 03:50:00,31.0,29.2,29.64,SE,136,0.0,0.0,93,0.00,,---,0.00,VWS V14.01,2013-01-27 10:50:00,
2013-01-27 04:00:00,30.9,29.1,29.64,SE,136,0.0,0.0,93,0.00,,---,0.00,VWS V14.01,2013-01-27 11:00:00,
2013-01-27 04:10:00,30.6,28.8,29.64,SE,136,0.0,0.0,93,0.00,,---,0.00,VWS V14.01,2013-01-27 11:10:00,
2013-01-27 04:20:00,32.5,30.4,29.64,SE,137,0.0,0.0,92,0.00,,---,0.00,VWS V14.01,2013-01-27 11:20:00,
2013-01-27 04:30:00,32.0,29.7,29.63,SE,137,0.0,0.0,91,0.00,,---,0.00,VWS V14.01,2013-01-27 11:30:00,
2013-01-27 04:40:00,31.6,29.0,29.64,SE,137,0.0,0.0,90,0.00,,---,0.00,VWS V14.01,2013-01-27 11:40:00,
2013-01-27 04:50:00,29.8,27.2,29.66,SE,137,0.0,0.0,90,0.00,,---,0.00,VWS V14.01,2013-01-27 11:50:00,
2013-01-27 05:00:00,29.2,26.9,29.67,SE,137,0.0,0.0,91,0.00,,---,0.00,VWS V14.01,2013-01-27 12:00:00,
2013-01-27 05:10:00,29.0,27.0,29.69,SE,137,0.0,0.0,92,0.00,,---,0.00,VWS V14.01,2013-01-27 12:10:00,
2013-01-27 05:20:00,29.1,27.1,29.68,SE,137,0.0,0.0,92,0.00,,---,0.00,VWS V14.01,2013-01-27 12:20:00,
2013-01-27 05:30:00,28.9,27.1,29.69,SE,137,0.0,0.0,93,0.00,,---,0.00,VWS V14.01,2013-01-27 12:30:00,
2013-01-27 05:40:00,27.8,26.0,29.69,SE,137,0.0,0.0,93,0.00,,---,0.00,VWS V14.01,2013-01-27 12:40:00,
2013-01-27 05:50:00,26.8,24.8,29.71,SE,137,0.0,0.0,92,0.00,,---,0.00,VWS V14.01,2013-01-27 12:50:00,
2013-01-27 06:00:00,28.1,26.3,29.69,SE,137,0.0,0.0,93,0.00,,---,0.00,VWS V14.01,2013-01-27 13:00:00,
2013-01-27 06:10:00,28.5,26.7,29.70,SE,137,0.0,0.0,93,0.00,,---,0.00,VWS V14.01,2013-01-27 13:10:00,
2013-01-27 06:20:00,27.6,25.6,29.71,SE,137,0.0,0.0,92,0.00,,---,0.00,VWS V14.01,2013-01-27 13:20:00,
2013-01-27 06:30:00,29.1,27.1,29.71,SE,137,0.0,0.0,92,0.00,,---,0.00,VWS V14.01,2013-01-27 13:30:00,
2013-01-27 06:40:00,28.4,26.1,29.71,SE,137,0.0,0.0,91,0.00,,---,0.00,VWS V14.01,2013-01-27 13:40:00,
2013-01-27 06:50:00,29.2,26.9,29.71,SE,137,0.0,0.0,91,0.00,,---,0.00,VWS V14.01,2013-01-27 13:50:00,
2013-01-27 07:00:00,29.1,26.8,29.72,SE,137,0.0,0.0,91,0.00,,---,0.00,VWS V14.01,2013-01-27 14:00:00,
2013-01-27 07:10:00,29.3,26.7,29.72,SE,137,0.0,0.0,90,0.00,,---,0.00,VWS V14.01,2013-01-27 14:10:00,
2013-01-27 07:20:00,28.6,25.5,29.72,SE,137,0.0,0.0,88,0.00,,---,0.00,VWS V14.01,2013-01-27 14:20:00,
2013-01-27 07:30:00,28.5,25.7,29.71,SE,137,0.0,0.0,89,0.00,,---,0.00,VWS V14.01,2013-01-27 14:30:00,
2013-01-27 07:40:00,28.8,26.0,29.72,SE,137,0.0,0.0,89,0.00,,---,0.00,VWS V14.01,2013-01-27 14:40:00,
2013-01-27 07:50:00,29.4,26.6,29.72,SE,137,0.0,0.0,89,0.00,,---,0.00,VWS V14.01,2013-01-27 14:50:00,
2013-01-27 08:00:00,30.2,26.8,29.70,SE,137,0.0,0.0,87,0.00,,---,0.00,VWS V14.01,2013-01-27 15:00:00,
2013-01-27 08:10:00,31.0,27.6,29.69,SE,137,0.0,0.0,87,0.00,,---,0.00,VWS V14.01,2013-01-27 15:10:00,
2013-01-27 08:20:00,31.6,28.5,29.67,ESE,115,0.0,0.0,88,0.00,,---,0.00,VWS V14.01,2013-01-27 15:20:00,
2013-01-27 08:30:00,31.6,28.5,29.67,ESE,107,0.0,0.0,88,0.00,,---,0.00,VWS V14.01,2013-01-27 15:30:00,
2013-01-27 08:40:00,32.1,28.7,29.67,ENE,75,0.0,0.0,87,0.00,,---,0.00,VWS V14.01,2013-01-27 15:40:00,
2013-01-27 08:50:00,32.0,28.3,29.68,ENE,75,0.0,0.0,86,0.00,,---,0.00,VWS V14.01,2013-01-27 15:50:00,
2013-01-27 09:00:00,33.2,29.5,29.68,ENE,75,0.0,0.0,86,0.01,,---,0.01,VWS V14.01,2013-01-27 16:00:00,
2013-01-27 09:10:00,34.1,30.1,29.66,ENE,68,2.0,7.0,85,0.01,,---,0.01,VWS V14.01,2013-01-27 16:10:00,
2013-01-27 09:20:00,38.6,26.7,29.67,NW,304,0.0,7.0,62,0.04,,---,0.05,VWS V14.01,2013-01-27 16:20:00,
2013-01-27 09:30:00,35.0,29.8,29.67,ENE,68,0.0,2.0,81,0.01,,---,0.01,VWS V14.01,2013-01-27 16:30:00,
2013-01-27 09:40:00,36.1,29.9,29.65,ENE,63,0.0,9.0,78,0.01,,---,0.01,VWS V14.01,2013-01-27 16:40:00,
2013-01-27 09:50:00,40.2,27.4,29.65,NW,304,0.0,3.0,60,0.08,,---,0.09,VWS V14.01,2013-01-27 16:50:00,
2013-01-27 10:00:00,37.3,28.8,29.64,WNW,303,7.0,14.0,71,0.03,,---,0.03,VWS V14.01,2013-01-27 17:00:00,
2013-01-27 10:10:00,38.2,27.1,29.66,NW,304,2.0,12.0,64,0.03,,---,0.04,VWS V14.01,2013-01-27 17:10:00,
2013-01-27 10:20:00,38.6,26.7,29.67,NW,304,0.0,7.0,62,0.04,,---,0.05,VWS V14.01,2013-01-27 17:20:00,
2013-01-27 10:30:00,39.7,26.6,29.65,NW,304,0.0,0.0,59,0.04,,---,0.05,VWS V14.01,2013-01-27 17:30:00,
2013-01-27 10:40:00,41.0,26.1,29.65,NW,304,0.0,4.0,55,0.06,,---,0.07,VWS V14.01,2013-01-27 17:40:00,
2013-01-27 10:50:00,40.2,27.4,29.65,NW,304,0.0,3.0,60,0.08,,---,0.09,VWS V14.01,2013-01-27 17:50:00,
2013-01-27 11:00:00,40.2,27.0,29.65,NE,55,0.0,9.0,59,0.08,,---,0.11,VWS V14.01,2013-01-27 18:00:00,
2013-01-27 11:10:00,41.6,24.4,29.66,ENE,65,0.0,6.0,50,0.11,,---,0.14,VWS V14.01,2013-01-27 18:10:00,
2013-01-27 11:20:00,42.3,24.0,29.64,WSW,244,4.0,19.0,48,0.12,,---,0.16,VWS V14.01,2013-01-27 18:20:00,
2013-01-27 11:30:00,42.8,27.8,29.63,ENE,57,11.0,11.0,55,0.13,,---,0.18,VWS V14.01,2013-01-27 18:30:00,
2013-01-27 11:40:00,42.0,23.8,29.63,NW,326,0.0,13.0,48,0.15,,---,0.20,VWS V14.01,2013-01-27 18:40:00,
2013-01-27 11:50:00,42.4,24.6,29.63,NW,311,3.0,11.0,49,0.14,,---,0.21,VWS V14.01,2013-01-27 18:50:00,
2013-01-27 12:00:00,42.0,24.2,29.62,NNE,15,5.0,9.0,49,0.12,,---,0.21,VWS V14.01,2013-01-27 19:00:00,
2013-01-27 12:10:00,43.9,26.5,29.60,North,9,0.0,5.0,50,0.10,,---,0.21,VWS V14.01,2013-01-27 19:10:00,
2013-01-27 12:20:00,43.1,22.1,29.61,WNW,303,4.0,24.0,43,0.08,,---,0.22,VWS V14.01,2013-01-27 19:20:00,
2013-01-27 12:30:00,43.8,23.9,29.59,WNW,288,0.0,11.0,45,0.06,,---,0.22,VWS V14.01,2013-01-27 19:30:00,
2013-01-27 12:40:00,43.3,22.9,29.61,North,5,0.0,15.0,44,0.04,,---,0.22,VWS V14.01,2013-01-27 19:40:00,
2013-01-27 12:50:00,43.3,23.4,29.61,West,269,1.0,20.0,45,0.02,,---,0.22,VWS V14.01,2013-01-27 19:50:00,
2013-01-27 13:00:00,43.4,21.3,29.61,SW,227,14.0,22.0,41,0.01,,---,0.22,VWS V14.01,2013-01-27 20:00:00,
2013-01-27 13:10:00,43.0,22.0,29.60,SW,215,20.0,23.0,43,0.01,,---,0.22,VWS V14.01,2013-01-27 20:10:00,
2013-01-27 13:20:00,43.5,23.0,29.58,WSW,246,12.0,29.0,44,0.01,,---,0.22,VWS V14.01,2013-01-27 20:20:00,
2013-01-27 13:30:00,44.0,22.4,29.58,WSW,252,0.0,25.0,42,0.00,,---,0.22,VWS V14.01,2013-01-27 20:30:00,
2013-01-27 13:40:00,44.1,21.3,29.58,West,276,20.0,24.0,40,0.00,,---,0.22,VWS V14.01,2013-01-27 20:40:00,
2013-01-27 13:50:00,44.0,21.8,29.58,West,261,19.0,28.0,41,0.00,,---,0.22,VWS V14.01,2013-01-27 20:50:00,
2013-01-27 14:00:00,43.9,20.6,29.58,WSW,240,15.0,30.0,39,0.00,,---,0.22,VWS V14.01,2013-01-27 21:00:00,
2013-01-27 14:10:00,44.2,20.8,29.60,WSW,252,13.0,29.0,39,0.00,,---,0.22,VWS V14.01,2013-01-27 21:10:00,
2013-01-27 14:20:00,44.0,20.0,29.60,WSW,258,16.0,29.0,38,0.00,,---,0.22,VWS V14.01,2013-01-27 21:20:00,
2013-01-27 14:30:00,44.2,21.4,29.60,WSW,242,15.0,32.0,40,0.00,,---,0.22,VWS V14.01,2013-01-27 21:30:00,
2013-01-27 14:40:00,44.0,22.4,29.60,WSW,251,22.0,28.0,42,0.00,,---,0.22,VWS V14.01,2013-01-27 21:40:00,
2013-01-27 14:50:00,44.0,21.8,29.60,WSW,246,14.0,27.0,41,0.00,,---,0.22,VWS V14.01,2013-01-27 21:50:00,
2013-01-27 15:00:00,44.1,21.3,29.60,SW,235,11.0,21.0,40,0.00,,---,0.22,VWS V14.01,2013-01-27 22:00:00,
2013-01-27 15:10:00,44.4,22.2,29.61,WSW,248,11.0,21.0,41,0.00,,---,0.22,VWS V14.01,2013-01-27 22:10:00,
2013-01-27 15:20:00,44.2,22.0,29.61,WSW,246,11.0,20.0,41,0.00,,---,0.22,VWS V14.01,2013-01-27 22:20:00,
2013-01-27 15:30:00,43.8,21.1,29.61,SSW,203,19.0,22.0,40,0.00,,---,0.22,VWS V14.01,2013-01-27 22:30:00,
2013-01-27 15:40:00,43.8,20.5,29.61,WSW,244,11.0,22.0,39,0.00,,---,0.22,VWS V14.01,2013-01-27 22:40:00,
2013-01-27 15:50:00,43.7,20.4,29.61,WSW,240,10.0,18.0,39,0.00,,---,0.22,VWS V14.01,2013-01-27 22:50:00,
2013-01-27 16:00:00,43.6,20.3,29.62,SW,233,15.0,26.0,39,0.00,,---,0.22,VWS V14.01,2013-01-27 23:00:00,
2013-01-27 16:10:00,43.9,21.2,29.63,SW,233,2.0,25.0,40,0.00,,---,0.22,VWS V14.01,2013-01-27 23:10:00,
2013-01-27 16:20:00,43.4,19.5,29.63,SW,232,10.0,21.0,38,0.00,,---,0.22,VWS V14.01,2013-01-27 23:20:00,
2013-01-27 16:30:00,42.8,19.0,29.63,SW,230,14.0,28.0,38,0.00,,---,0.22,VWS V14.01,2013-01-27 23:30:00,
2013-01-27 16:40:00,41.3,18.2,29.65,SW,223,11.0,16.0,39,0.00,,---,0.22,VWS V14.01,2013-01-27 23:40:00,
2013-01-27 16:50:00,41.1,17.4,29.66,SW,236,11.0,20.0,38,0.00,,---,0.22,VWS V14.01,2013-01-27 23:50:00,
2013-01-27 17:00:00,40.7,18.9,29.66,SW,232,11.0,14.0,41,0.00,,---,0.22,VWS V14.01,2013-01-28 00:00:00,
2013-01-27 17:10:00,40.2,19.0,29.67,SW,234,8.0,16.0,42,0.00,,---,0.22,VWS V14.01,2013-01-28 00:10:00,
2013-01-27 17:20:00,39.3,20.3,29.69,SW,230,4.0,12.0,46,0.00,,---,0.22,VWS V14.01,2013-01-28 00:20:00,
2013-01-27 17:30:00,38.8,19.8,29.70,SW,236,7.0,12.0,46,0.00,,---,0.22,VWS V14.01,2013-01-28 00:30:00,
2013-01-27 17:40:00,39.2,19.1,29.71,WSW,238,0.0,15.0,44,0.00,,---,0.22,VWS V14.01,2013-01-28 00:40:00,
2013-01-27 17:50:00,38.6,21.1,29.70,WSW,237,0.0,11.0,49,0.00,,---,0.22,VWS V14.01,2013-01-28 00:50:00,
2013-01-27 18:00:00,36.4,25.4,29.72,WSW,238,0.0,0.0,64,0.00,,---,0.22,VWS V14.01,2013-01-28 01:00:00,
2013-01-27 18:10:00,35.4,26.3,29.73,WSW,237,0.0,0.0,69,0.00,,---,0.22,VWS V14.01,2013-01-28 01:10:00,
2013-01-27 18:20:00,35.0,26.6,29.73,WSW,238,0.0,0.0,71,0.00,,---,0.22,VWS V14.01,2013-01-28 01:20:00,
2013-01-27 18:30:00,34.4,26.3,29.74,WSW,237,0.0,0.0,72,0.00,,---,0.22,VWS V14.01,2013-01-28 01:30:00,
2013-01-27 18:40:00,33.9,26.2,29.75,WSW,237,0.0,0.0,73,0.00,,---,0.22,VWS V14.01,2013-01-28 01:40:00,
2013-01-27 18:50:00,33.3,26.2,29.75,WSW,238,0.0,0.0,75,0.00,,---,0.22,VWS V14.01,2013-01-28 01:50:00,
2013-01-27 19:00:00,33.0,26.3,29.75,WSW,237,0.0,0.0,76,0.00,,---,0.22,VWS V14.01,2013-01-28 02:00:00,
2013-01-27 19:10:00,32.3,25.9,29.74,WSW,238,0.0,0.0,77,0.00,,---,0.22,VWS V14.01,2013-01-28 02:10:00,
2013-01-27 19:20:00,31.5,25.1,29.75,WSW,237,0.0,0.0,77,0.00,,---,0.22,VWS V14.01,2013-01-28 02:20:00,
2013-01-27 19:30:00,31.2,25.1,29.77,WSW,238,0.0,0.0,78,0.00,,---,0.22,VWS V14.01,2013-01-28 02:30:00,
2013-01-27 19:40:00,30.9,25.2,29.76,WSW,237,0.0,0.0,79,0.00,,---,0.22,VWS V14.01,2013-01-28 02:40:00,
2013-01-27 19:50:00,30.9,25.5,29.76,WSW,238,0.0,0.0,80,0.00,,---,0.22,VWS V14.01,2013-01-28 02:50:00,
2013-01-27 20:00:00,31.0,25.6,29.76,WSW,238,0.0,0.0,80,0.00,,---,0.22,VWS V14.01,2013-01-28 03:00:00,
2013-01-27 20:10:00,31.1,26.0,29.72,WSW,238,0.0,0.0,81,0.00,,---,0.22,VWS V14.01,2013-01-28 03:10:00,
2013-01-27 20:20:00,30.9,25.8,29.72,WSW,237,0.0,0.0,81,0.00,,---,0.22,VWS V14.01,2013-01-28 03:20:00,
2013-01-27 20:30:00,30.9,26.1,29.72,WSW,237,0.0,0.0,82,0.00,,---,0.22,VWS V14.01,2013-01-28 03:30:00,
2013-01-27 20:40:00,30.6,25.5,29.72,WSW,238,0.0,0.0,81,0.00,,---,0.22,VWS V14.01,2013-01-28 03:40:00,
2013-01-27 20:50:00,29.9,25.1,29.74,WSW,238,0.0,0.0,82,0.00,,---,0.22,VWS V14.01,2013-01-28 03:50:00,
2013-01-27 21:00:00,28.9,23.8,29.74,WSW,238,0.0,5.0,81,0.00,,---,0.22,VWS V14.01,2013-01-28 04:00:00,
2013-01-27 21:10:00,28.6,24.4,29.70,WSW,238,0.0,0.0,84,0.00,,---,0.22,VWS V14.01,2013-01-28 04:10:00,
2013-01-27 21:20:00,28.3,23.8,29.72,WSW,238,0.0,0.0,83,0.00,,---,0.22,VWS V14.01,2013-01-28 04:20:00,
2013-01-27 21:30:00,28.3,23.8,29.72,WSW,237,0.0,4.0,83,0.00,,---,0.22,VWS V14.01,2013-01-28 04:30:00,
2013-01-27 21:40:00,28.8,24.0,29.70,WSW,238,3.0,3.0,82,0.00,,---,0.22,VWS V14.01,2013-01-28 04:40:00,
2013-01-27 21:50:00,29.5,23.5,29.70,SW,235,0.0,6.0,78,0.00,,---,0.22,VWS V14.01,2013-01-28 04:50:00,
2013-01-27 22:00:00,29.1,22.8,29.68,SW,235,0.0,0.0,77,0.00,,---,0.22,VWS V14.01,2013-01-28 05:00:00,
2013-01-27 22:10:00,29.0,22.4,29.68,SSE,155,0.0,7.0,76,0.00,,---,0.22,VWS V14.01,2013-01-28 05:10:00,
2013-01-27 22:20:00,28.1,21.5,29.67,SSE,155,0.0,0.0,76,0.00,,---,0.22,VWS V14.01,2013-01-28 05:20:00,
2013-01-27 22:30:00,27.6,21.6,29.67,SSE,156,0.0,0.0,78,0.00,,---,0.22,VWS V14.01,2013-01-28 05:30:00,
2013-01-27 22:40:00,28.2,21.6,29.66,SSE,156,0.0,0.0,76,0.00,,---,0.22,VWS V14.01,2013-01-28 05:40:00,
2013-01-27 22:50:00,28.1,21.2,29.66,SSE,156,0.0,0.0,75,0.00,,---,0.22,VWS V14.01,2013-01-28 05:50:00,
2013-01-27 23:00:00,27.9,21.0,29.67,SSE,156,5.0,5.0,75,0.00,,---,0.22,VWS V14.01,2013-01-28 06:00:00,
2013-01-27 23:10:00,28.1,20.9,29.65,SSE,156,2.0,7.0,74,0.00,,---,0.22,VWS V14.01,2013-01-28 06:10:00,
2013-01-27 23:20:00,28.1,20.9,29.65,SSE,156,3.0,6.0,74,0.00,,---,0.22,VWS V14.01,2013-01-28 06:20:00,
2013-01-27 23:30:00,29.0,21.1,29.65,SSE,156,0.0,10.0,72,0.00,,---,0.22,VWS V14.01,2013-01-28 06:30:00,
2013-01-27 23:40:00,28.9,20.7,29.65,SSE,156,0.0,0.0,71,0.00,,---,0.22,VWS V14.01,2013-01-28 06:40:00,
2013-01-27 23:50:00,29.1,21.2,29.65,SSE,156,1.0,5.0,72,0.00,,---,0.22,VWS V14.01,2013-01-28 06:50:00,